Harbor Springs, MI

5:09 AM EST on January 18, 2018 (GMT -0500)
Harbor Springs

Weather History for KMGN - September, 2013

Change the Weather History Date:

Saturday, September 21, 2013

  Actual Average (KPLN) Record (KPLN)
Temperature  
Mean Temperature 54 °F -  
Max Temperature 58 °F 62 °F 84 °F (2007)
Min Temperature 50 °F 43 °F 26 °F (1956)
Degree Days  
Heating Degree Days 11    
Growing Degree Days 4 (Base 50)    
Moisture  
Dew Point 48 °F    
Average Humidity 80    
Maximum Humidity 95    
Minimum Humidity 59    
Precipitation  
Precipitation 0.00 in - - ()
Sea Level Pressure  
Sea Level Pressure 29.79 in    
Wind  
Wind Speed 5 mph (NW)    
Max Wind Speed 21 mph    
Max Gust Speed 26 mph    
Visibility 10 miles    
Events Rain    
Averages and records for this station are not official NWS values.
T = Trace of Precipitation, MM = Missing Value Source: NWS Daily Summary

Daily Weather History Graph

Daily Weather History Graph

Search for Another Location

Airport or City:

Trip Planner

Search our weather history database for the weather conditions in past years. The results will help you decide how hot, cold, wet, or windy it might be!

Date:

Astronomy

Sep. 21, 2013 Rise Set
Actual Time 7:25 AM EDT 7:38 PM EDT
Civil Twilight 6:56 AM EDT 8:08 PM EDT
Nautical Twilight 6:21 AM EDT 8:42 PM EDT
Astronomical Twilight 5:45 AM EDT 9:18 PM EDT
Moon 8:39 PM EDT (9/21) 9:52 AM EDT (9/21)
Length of Visible Light 13h 11m
Length of Day
12h 12m
Waning Gibbous, 94% of the Moon is Illuminated
Sep 21
Waning Gibbous
Sep 26
Last Quarter
Oct 4
New
Oct 11
First Quarter
Oct 18
Full

Hourly Weather History & Observations

Time (EDT) Temp. Dew Point Humidity Pressure Visibility Wind Dir Wind Speed Gust Speed Precip Events Conditions
12:14 AM 58.6 °F 54.7 °F 87% 29.71 in 10.0 mi North 4.6 mph - N/A   Overcast
12:35 AM 58.3 °F 54.3 °F 87% 29.72 in 10.0 mi NE 3.5 mph - N/A   Overcast
12:55 AM 57.6 °F 54.1 °F 88% 29.72 in 10.0 mi Calm Calm - N/A   Overcast
1:14 AM 57.4 °F 54.5 °F 90% 29.73 in 10.0 mi Calm Calm - N/A   Overcast
1:35 AM 57.4 °F 53.6 °F 87% 29.72 in 10.0 mi NW 3.5 mph - N/A   Overcast
1:54 AM 57.4 °F 53.6 °F 87% 29.72 in 10.0 mi North 3.5 mph - N/A   Overcast
2:14 AM 57.4 °F 53.6 °F 87% 29.73 in 10.0 mi NW 4.6 mph - N/A   Overcast
2:35 AM 57.4 °F 53.2 °F 86% 29.72 in 10.0 mi North 4.6 mph - N/A   Overcast
2:54 AM 57.4 °F 54.0 °F 88% 29.73 in 10.0 mi NNW 3.5 mph - N/A   Light Drizzle
3:14 AM 56.3 °F 53.6 °F 91% 29.73 in 10.0 mi Calm Calm - N/A   Overcast
3:35 AM 56.3 °F 53.6 °F 91% 29.73 in 10.0 mi Calm Calm - N/A   Overcast
3:54 AM 56.3 °F 53.6 °F 91% 29.72 in 10.0 mi NNW 4.6 mph - N/A   Overcast
4:14 AM 56.1 °F 52.5 °F 88% 29.71 in 10.0 mi North 4.6 mph - N/A   Overcast
4:35 AM 55.0 °F 51.4 °F 88% 29.72 in 10.0 mi Calm Calm - N/A   Overcast
4:54 AM 54.9 °F 51.3 °F 88% 29.73 in 10.0 mi Calm Calm - N/A   Overcast
5:14 AM 54.9 °F 50.9 °F 86% 29.73 in 10.0 mi Calm Calm - N/A   Overcast
5:35 AM 54.9 °F 50.9 °F 86% 29.73 in 10.0 mi Calm Calm - N/A   Overcast
5:54 AM 54.9 °F 51.1 °F 87% 29.72 in 10.0 mi Calm Calm - N/A   Overcast
6:14 AM 54.9 °F 51.8 °F 89% 29.73 in 10.0 mi Calm Calm - N/A   Mostly Cloudy
6:35 AM 52.3 °F 50.0 °F 92% 29.73 in 10.0 mi Calm Calm - N/A   Scattered Clouds
6:54 AM 52.3 °F 51.1 °F 95% 29.73 in 10.0 mi Calm Calm - N/A   Mostly Cloudy
7:14 AM 52.3 °F 50.9 °F 95% 29.73 in 10.0 mi Calm Calm - N/A   Mostly Cloudy
7:35 AM 53.1 °F 51.1 °F 93% 29.73 in 10.0 mi Calm Calm - N/A   Overcast
7:54 AM 52.9 °F 50.7 °F 92% 29.74 in 10.0 mi Calm Calm - N/A   Overcast
8:15 AM 54.9 °F 50.9 °F 86% 29.75 in 10.0 mi NW 3.5 mph - N/A   Overcast
8:35 AM 54.9 °F 50.0 °F 84% 29.75 in 10.0 mi NW 4.6 mph - N/A   Overcast
8:54 AM 54.9 °F 50.0 °F 84% 29.75 in 10.0 mi NW 3.5 mph - N/A   Mostly Cloudy
9:15 AM 55.6 °F 49.3 °F 79% 29.76 in 10.0 mi NNW 8.1 mph - N/A   Mostly Cloudy
9:35 AM 54.9 °F 48.9 °F 80% 29.76 in 10.0 mi NNW 10.4 mph - N/A   Overcast
9:54 AM 54.9 °F 49.1 °F 81% 29.76 in 10.0 mi NNW 5.8 mph - N/A   Overcast
10:15 AM 55.6 °F 48.6 °F 77% 29.76 in 10.0 mi NNW 8.1 mph - N/A   Overcast
10:35 AM 57.2 °F 49.3 °F 75% 29.76 in 10.0 mi NW 9.2 mph 17.3 mph N/A   Overcast
10:54 AM 55.4 °F 47.8 °F 76% 29.76 in 10.0 mi NW 9.2 mph 17.3 mph N/A   Overcast
11:15 AM 57.4 °F 48.2 °F 71% 29.77 in 10.0 mi WNW 15.0 mph 19.6 mph N/A   Mostly Cloudy
11:35 AM 57.4 °F 47.8 °F 70% 29.76 in 10.0 mi WNW 10.4 mph 17.3 mph N/A   Overcast
11:54 AM 55.8 °F 48.0 °F 75% 29.77 in 10.0 mi NNW 6.9 mph 24.2 mph N/A   Overcast
12:15 PM 57.4 °F 47.5 °F 70% 29.77 in 10.0 mi WNW 9.2 mph - N/A   Overcast
12:35 PM 57.4 °F 45.9 °F 65% 29.77 in 10.0 mi WNW 12.7 mph 19.6 mph N/A   Mostly Cloudy
12:54 PM 57.4 °F 45.0 °F 63% 29.77 in 10.0 mi NW 13.8 mph 20.7 mph N/A   Mostly Cloudy
1:15 PM 54.9 °F 46.4 °F 73% 29.78 in 10.0 mi NW 11.5 mph 21.9 mph N/A   Overcast
1:34 PM 58.1 °F 46.0 °F 64% 29.79 in 10.0 mi WNW 20.7 mph 26.5 mph N/A   Mostly Cloudy
1:55 PM 57.4 °F 45.3 °F 64% 29.79 in 10.0 mi WNW 12.7 mph 21.9 mph N/A   Overcast
2:15 PM 57.4 °F 43.3 °F 59% 29.79 in 10.0 mi NW 15.0 mph 21.9 mph N/A   Mostly Cloudy
2:34 PM 57.4 °F 44.6 °F 62% 29.79 in 10.0 mi West 15.0 mph 21.9 mph N/A   Mostly Cloudy
2:55 PM 55.8 °F 41.7 °F 59% 29.79 in 10.0 mi WNW 12.7 mph 23.0 mph N/A   Overcast
3:15 PM 54.9 °F 43.3 °F 65% 29.81 in 10.0 mi WNW 13.8 mph 17.3 mph N/A   Overcast
3:34 PM 57.2 °F 46.2 °F 67% 29.81 in 10.0 mi West 12.7 mph 20.7 mph N/A   Mostly Cloudy
3:55 PM 54.9 °F 43.0 °F 64% 29.81 in 10.0 mi WNW 15.0 mph 24.2 mph N/A   Mostly Cloudy
4:15 PM 54.9 °F 44.8 °F 69% 29.81 in 10.0 mi West 13.8 mph 23.0 mph N/A   Overcast
4:34 PM 55.9 °F 44.2 °F 65% 29.81 in 10.0 mi NW 13.8 mph 21.9 mph N/A   Overcast
4:55 PM 55.0 °F 44.2 °F 67% 29.82 in 10.0 mi WNW 16.1 mph 24.2 mph N/A   Overcast
5:14 PM 53.6 °F 48.4 °F 82% 29.82 in 10.0 mi WNW 9.2 mph - N/A   Overcast
5:34 PM 53.1 °F 46.9 °F 80% 29.83 in 4.0 mi WNW 13.8 mph 23.0 mph N/A Rain Rain
5:55 PM 52.3 °F 46.8 °F 81% 29.83 in 7.0 mi West 6.9 mph - N/A Rain Light Rain
6:14 PM 50.0 °F 46.6 °F 88% 29.84 in 3.0 mi West 5.8 mph - N/A   Heavy Drizzle
6:34 PM 50.0 °F 45.7 °F 85% 29.84 in 10.0 mi NW 6.9 mph - N/A   Overcast
6:55 PM 50.0 °F 44.8 °F 82% 29.84 in 10.0 mi West 6.9 mph - N/A   Overcast
7:14 PM 50.0 °F 44.8 °F 82% 29.85 in 10.0 mi NW 10.4 mph 18.4 mph N/A   Overcast
7:34 PM 50.0 °F 44.6 °F 82% 29.86 in 10.0 mi NW 6.9 mph - N/A   Overcast
7:55 PM 50.0 °F 45.7 °F 85% 29.86 in 10.0 mi NW 5.8 mph - N/A   Overcast
8:14 PM 50.0 °F 45.0 °F 83% 29.86 in 10.0 mi NNW 6.9 mph - N/A   Overcast
8:34 PM 50.0 °F 44.1 °F 80% 29.87 in 10.0 mi NW 8.1 mph 16.1 mph N/A   Overcast
8:55 PM 50.0 °F 45.5 °F 85% 29.88 in 5.0 mi NNW 6.9 mph - N/A Rain Rain
9:14 PM 50.0 °F 46.6 °F 88% 29.88 in 7.0 mi NW 3.5 mph - N/A   Light Drizzle
9:34 PM 50.0 °F 46.2 °F 87% 29.89 in 10.0 mi NW 4.6 mph - N/A   Overcast
9:55 PM 50.0 °F 45.5 °F 85% 29.89 in 10.0 mi WNW 4.6 mph - N/A   Overcast
10:14 PM 50.0 °F 44.6 °F 82% 29.89 in 10.0 mi NW 6.9 mph - N/A   Overcast
10:34 PM 50.0 °F 44.6 °F 82% 29.90 in 10.0 mi NW 8.1 mph - N/A   Overcast
10:55 PM 50.0 °F 44.4 °F 81% 29.90 in 10.0 mi NW 9.2 mph - N/A   Overcast
11:14 PM 50.0 °F 44.1 °F 80% 29.90 in 10.0 mi WNW 3.5 mph - N/A   Overcast
11:35 PM 50.0 °F 43.7 °F 79% 29.91 in 10.0 mi NW 5.8 mph - N/A   Mostly Cloudy
11:55 PM 50.0 °F 43.5 °F 78% 29.91 in 10.0 mi WNW 4.6 mph - N/A   Mostly Cloudy